Time;durP1;ratioP1;P1;durP2;ratioP2;P2;SDS_P1;SDS_P2;PMS_P1;PMS_P2;Temp;Humidity;BMP_temperature;BMP_pressure;BME280_temperature;BME280_humidity;BME280_pressure;Samples;Min_cycle;Max_cycle;Signal;HPM_P1;HPM_P2
2023/08/08 00:01:07;;;;;;;7.00;2.60;;;13.30;99.90;;;;;;5046443;28;20090;-81
2023/08/08 00:03:34;;;;;;;8.88;2.53;;;13.20;99.90;;;;;;5065825;28;20037;-81
2023/08/08 00:06:00;;;;;;;9.73;2.63;;;13.20;99.90;;;;;;5081994;28;20075;-81
2023/08/08 00:08:25;;;;;;;6.65;2.72;;;13.20;99.90;;;;;;5047795;28;20076;-82
2023/08/08 00:10:51;;;;;;;8.00;2.83;;;13.10;99.90;;;;;;5066321;28;20674;-81
2023/08/08 00:13:17;;;;;;;10.77;2.80;;;13.10;99.90;;;;;;5048654;28;20043;-82
2023/08/08 00:15:42;;;;;;;7.45;2.65;;;13.10;99.90;;;;;;5064710;28;20086;-82
2023/08/08 00:18:08;;;;;;;8.70;2.15;;;13.10;99.90;;;;;;5047815;28;20563;-82
2023/08/08 00:20:34;;;;;;;11.13;2.53;;;13.10;99.90;;;;;;5049399;28;20047;-82
2023/08/08 00:22:59;;;;;;;6.35;2.45;;;13.20;99.90;;;;;;5047307;28;20166;-82
2023/08/08 00:25:25;;;;;;;7.38;2.20;;;13.20;99.90;;;;;;5047183;28;20488;-82
2023/08/08 00:27:51;;;;;;;6.82;2.05;;;13.30;99.90;;;;;;5048447;28;20048;-82
2023/08/08 00:30:17;;;;;;;10.10;2.65;;;13.20;99.90;;;;;;5064583;28;20385;-82
2023/08/08 00:32:42;;;;;;;6.97;2.40;;;13.20;99.90;;;;;;5064092;28;20048;-82
2023/08/08 00:35:09;;;;;;;5.10;2.50;;;13.20;99.90;;;;;;5048904;28;20075;-82
2023/08/08 00:37:34;;;;;;;10.25;2.70;;;13.10;99.90;;;;;;5065878;28;20071;-82
2023/08/08 00:40:00;;;;;;;7.38;2.53;;;13.10;99.90;;;;;;5064971;28;20122;-81
2023/08/08 00:42:26;;;;;;;10.95;2.80;;;13.00;99.90;;;;;;5064928;28;20055;-82
2023/08/08 00:44:51;;;;;;;6.82;2.50;;;13.00;99.90;;;;;;5064824;28;20076;-81
2023/08/08 00:47:17;;;;;;;8.05;2.90;;;13.00;99.90;;;;;;5066011;28;20415;-82
2023/08/08 00:49:46;;;;;;;12.43;3.22;;;13.00;99.90;;;;;;5063985;28;20541;-82
2023/08/08 00:52:13;;;;;;;9.00;2.50;;;12.90;99.90;;;;;;5048398;28;20488;-82
2023/08/08 00:54:39;;;;;;;6.22;2.78;;;12.90;99.90;;;;;;5054652;28;20049;-81
2023/08/08 00:57:05;;;;;;;7.90;2.60;;;12.90;99.90;;;;;;5064873;28;20043;-82
2023/08/08 00:59:32;;;;;;;7.18;2.83;;;12.90;99.90;;;;;;5067258;28;20060;-81
2023/08/08 01:01:58;;;;;;;10.48;3.28;;;12.90;99.90;;;;;;5069546;28;20041;-81
2023/08/08 01:04:26;;;;;;;11.35;3.28;;;12.80;99.90;;;;;;5051762;28;20377;-81
2023/08/08 01:07:29;;;;;;;7.68;3.00;;;12.80;99.90;;;;;;5067434;28;20535;-82
2023/08/08 01:10:07;;;;;;;9.60;3.10;;;12.80;99.90;;;;;;5067865;28;20119;-81
2023/08/08 01:12:41;;;;;;;7.20;2.70;;;12.70;99.90;;;;;;5050854;28;20048;-81
2023/08/08 01:15:08;;;;;;;7.30;2.67;;;12.80;99.90;;;;;;5070145;28;20037;-81
2023/08/08 01:17:36;;;;;;;11.27;3.22;;;12.70;99.90;;;;;;5069373;28;20048;-81
2023/08/08 01:20:07;;;;;;;12.57;3.42;;;12.70;99.90;;;;;;5067148;28;20118;-81
2023/08/08 01:22:40;;;;;;;10.20;3.45;;;12.70;99.90;;;;;;5068560;28;20090;-81
2023/08/08 01:25:08;;;;;;;9.70;3.00;;;12.70;99.90;;;;;;5067642;28;20325;-81
2023/08/08 01:27:34;;;;;;;9.15;3.22;;;12.70;99.90;;;;;;5066317;28;20077;-81
2023/08/08 01:29:59;;;;;;;9.07;2.90;;;12.70;99.90;;;;;;5076847;28;20048;-81
2023/08/08 01:32:25;;;;;;;8.30;2.97;;;12.70;99.90;;;;;;5049975;28;20518;-81
2023/08/08 01:34:51;;;;;;;7.57;3.00;;;12.60;99.90;;;;;;5067388;28;20052;-81
2023/08/08 01:37:34;;;;;;;10.45;2.97;;;12.60;99.90;;;;;;5069648;28;20388;-81
2023/08/08 01:40:00;;;;;;;8.18;2.70;;;12.60;99.90;;;;;;5068592;28;20040;-82
2023/08/08 01:42:27;;;;;;;8.52;2.70;;;12.70;99.90;;;;;;5061131;28;20072;-81
2023/08/08 01:44:54;;;;;;;12.30;2.78;;;12.80;99.90;;;;;;5073110;28;20048;-82
2023/08/08 01:47:20;;;;;;;12.27;3.05;;;12.80;99.90;;;;;;5066360;28;20415;-81
2023/08/08 01:49:45;;;;;;;9.93;2.50;;;12.90;99.90;;;;;;5067031;28;20051;-81
2023/08/08 01:52:11;;;;;;;8.88;2.80;;;12.90;99.90;;;;;;5069378;28;20051;-81
2023/08/08 01:54:37;;;;;;;9.57;2.67;;;12.90;99.90;;;;;;5066354;28;20060;-81
2023/08/08 01:57:03;;;;;;;9.20;2.40;;;13.00;99.90;;;;;;5067437;28;20044;-81
2023/08/08 01:59:29;;;;;;;7.80;2.50;;;13.10;99.90;;;;;;5067762;28;20079;-82
2023/08/08 02:01:54;;;;;;;7.80;2.53;;;13.10;99.90;;;;;;5065309;28;20511;-82
2023/08/08 02:04:20;;;;;;;6.70;2.65;;;13.20;99.90;;;;;;5067798;28;20177;-82
2023/08/08 02:06:46;;;;;;;7.35;2.63;;;13.20;99.90;;;;;;5080040;28;20133;-82
2023/08/08 02:09:14;;;;;;;5.93;2.17;;;13.30;99.90;;;;;;5068377;28;20474;-82
2023/08/08 02:11:40;;;;;;;8.35;2.47;;;13.30;99.90;;;;;;5054550;28;20058;-81
2023/08/08 02:14:06;;;;;;;10.52;2.78;;;13.30;99.90;;;;;;5066287;28;20435;-82
2023/08/08 02:16:31;;;;;;;6.53;2.35;;;13.30;99.90;;;;;;5056922;28;20051;-82
2023/08/08 02:18:57;;;;;;;10.43;2.72;;;13.40;99.90;;;;;;5073653;28;20060;-82
2023/08/08 02:21:23;;;;;;;6.40;2.60;;;13.40;99.90;;;;;;5067990;28;20431;-81
2023/08/08 02:23:48;;;;;;;11.52;2.90;;;13.40;99.90;;;;;;5067548;28;20053;-82
2023/08/08 02:26:14;;;;;;;9.82;3.03;;;13.40;99.90;;;;;;5040258;28;20080;-82
2023/08/08 02:28:41;;;;;;;9.18;2.83;;;13.40;99.90;;;;;;5066200;28;20045;-82
2023/08/08 02:31:06;;;;;;;14.63;3.03;;;13.50;99.90;;;;;;5065997;28;20307;-82
2023/08/08 02:33:32;;;;;;;11.52;3.08;;;13.50;99.90;;;;;;5068401;28;20044;-82
2023/08/08 02:35:58;;;;;;;10.15;2.58;;;13.50;99.90;;;;;;5065355;28;20052;-81
2023/08/08 02:38:23;;;;;;;10.30;2.72;;;13.50;99.90;;;;;;5050730;28;20048;-81
2023/08/08 02:40:49;;;;;;;9.70;2.47;;;13.60;99.90;;;;;;5066792;28;20048;-82
2023/08/08 02:43:16;;;;;;;12.57;3.38;;;13.60;99.90;;;;;;5065690;28;20036;-82
2023/08/08 02:45:42;;;;;;;9.73;2.60;;;13.60;99.90;;;;;;5055255;28;20169;-82
2023/08/08 02:48:07;;;;;;;7.07;2.50;;;13.50;99.90;;;;;;5065474;28;20551;-82
2023/08/08 02:50:33;;;;;;;11.65;2.88;;;13.50;99.90;;;;;;5066521;28;20146;-81
2023/08/08 02:52:59;;;;;;;8.85;2.80;;;13.50;99.90;;;;;;5066331;28;20090;-81
2023/08/08 02:55:25;;;;;;;8.48;2.28;;;13.50;99.90;;;;;;5055594;28;20492;-82
2023/08/08 02:57:50;;;;;;;8.88;2.65;;;13.50;99.90;;;;;;5049001;28;20622;-82
2023/08/08 03:00:17;;;;;;;7.43;2.40;;;13.40;99.90;;;;;;5066738;28;20504;-81
2023/08/08 03:02:43;;;;;;;9.68;2.53;;;13.50;99.90;;;;;;5066233;28;20118;-82
2023/08/08 03:05:08;;;;;;;8.40;2.92;;;13.50;99.90;;;;;;5065613;28;20464;-81
2023/08/08 03:07:34;;;;;;;8.65;2.40;;;13.50;99.90;;;;;;5062783;28;20555;-81
2023/08/08 03:10:00;;;;;;;8.52;2.40;;;13.50;99.90;;;;;;5067312;28;20408;-81
2023/08/08 03:12:26;;;;;;;9.95;2.17;;;13.50;99.90;;;;;;5048582;28;20044;-82
2023/08/08 03:14:51;;;;;;;8.90;2.15;;;13.50;99.90;;;;;;5079923;28;20120;-82
2023/08/08 03:17:17;;;;;;;10.68;2.58;;;13.50;99.90;;;;;;5065335;28;20041;-82
2023/08/08 03:19:43;;;;;;;10.18;2.22;;;13.50;99.90;;;;;;5066293;28;20052;-81
2023/08/08 03:22:09;;;;;;;10.35;2.10;;;13.50;99.90;;;;;;5049388;28;20086;-82
2023/08/08 03:24:35;;;;;;;7.35;2.05;;;13.50;99.90;;;;;;5100700;28;20140;-82
2023/08/08 03:27:00;;;;;;;7.72;2.03;;;13.50;99.90;;;;;;5067122;28;20468;-82
2023/08/08 03:29:26;;;;;;;6.78;1.52;;;13.40;99.90;;;;;;5049304;28;20036;-82
2023/08/08 03:31:52;;;;;;;7.63;1.95;;;13.40;99.90;;;;;;5063867;28;20084;-82
2023/08/08 03:34:17;;;;;;;6.20;1.60;;;13.40;99.90;;;;;;5067640;28;20032;-82
2023/08/08 03:36:43;;;;;;;8.02;1.92;;;13.40;99.90;;;;;;5048948;28;20103;-82
2023/08/08 03:39:09;;;;;;;9.48;1.63;;;13.40;99.90;;;;;;5083745;28;20059;-82
2023/08/08 03:41:34;;;;;;;6.00;1.45;;;13.40;99.90;;;;;;5072789;28;20159;-81
2023/08/08 03:44:02;;;;;;;5.38;1.58;;;13.40;99.90;;;;;;5060848;28;20063;-81
2023/08/08 03:46:28;;;;;;;6.25;1.60;;;13.40;99.90;;;;;;5065713;28;20048;-82
2023/08/08 03:48:54;;;;;;;5.07;1.30;;;13.30;99.90;;;;;;5065170;28;20048;-82
2023/08/08 03:51:20;;;;;;;9.55;1.65;;;13.30;99.90;;;;;;5065428;28;20515;-82
2023/08/08 03:53:46;;;;;;;6.88;1.65;;;13.30;99.90;;;;;;5067012;28;20040;-82
2023/08/08 03:56:12;;;;;;;5.85;1.55;;;13.20;99.90;;;;;;5072638;28;20381;-82
2023/08/08 03:58:38;;;;;;;5.40;1.42;;;13.20;99.90;;;;;;5066947;28;20036;-81
2023/08/08 04:01:04;;;;;;;7.68;1.70;;;13.00;99.90;;;;;;5046696;28;20451;-81
2023/08/08 04:03:30;;;;;;;8.48;1.98;;;13.00;99.90;;;;;;5065933;28;20110;-82
2023/08/08 04:05:55;;;;;;;8.15;2.00;;;12.90;99.90;;;;;;5065949;28;20063;-82
2023/08/08 04:08:21;;;;;;;5.38;1.60;;;12.80;99.90;;;;;;5065146;28;20058;-82
2023/08/08 04:10:47;;;;;;;5.97;1.50;;;12.80;99.90;;;;;;5066635;28;20510;-82
2023/08/08 04:13:13;;;;;;;9.38;1.70;;;12.80;99.90;;;;;;5065333;28;20041;-82
2023/08/08 04:15:39;;;;;;;10.95;2.00;;;12.80;99.90;;;;;;5066566;28;20044;-82
2023/08/08 04:18:06;;;;;;;5.25;1.40;;;12.90;99.90;;;;;;5066324;28;20068;-82
2023/08/08 04:20:33;;;;;;;6.57;1.67;;;12.90;99.90;;;;;;5049127;28;20102;-82
2023/08/08 04:22:59;;;;;;;7.22;1.50;;;12.90;99.90;;;;;;5045187;28;20037;-81
2023/08/08 04:25:25;;;;;;;6.75;1.40;;;13.00;99.90;;;;;;5066251;28;20130;-82
2023/08/08 04:27:54;;;;;;;8.27;1.75;;;13.00;99.90;;;;;;5067832;28;20047;-81
2023/08/08 04:30:20;;;;;;;11.00;2.03;;;13.00;99.90;;;;;;5073888;28;20083;-82
2023/08/08 04:32:45;;;;;;;6.85;1.20;;;13.10;99.90;;;;;;5064766;28;20064;-81
2023/08/08 04:35:11;;;;;;;11.43;1.67;;;13.10;99.90;;;;;;5065695;28;20053;-82
2023/08/08 04:37:37;;;;;;;10.13;1.67;;;13.10;99.90;;;;;;5068981;28;20036;-82
2023/08/08 04:40:03;;;;;;;7.88;1.70;;;13.10;99.90;;;;;;5066895;28;20458;-82
2023/08/08 04:42:29;;;;;;;7.07;1.52;;;13.10;99.90;;;;;;5067003;28;20044;-82
2023/08/08 04:44:55;;;;;;;9.85;1.90;;;13.10;99.90;;;;;;5067726;28;20048;-82
2023/08/08 04:47:21;;;;;;;10.40;1.30;;;13.10;99.90;;;;;;5068078;28;20033;-82
2023/08/08 04:49:47;;;;;;;8.15;1.55;;;13.10;99.90;;;;;;5066534;28;20446;-80
2023/08/08 04:52:12;;;;;;;7.50;1.65;;;13.20;99.90;;;;;;5063286;28;20036;-82
2023/08/08 04:54:38;;;;;;;8.13;1.40;;;13.20;99.90;;;;;;5087712;28;20040;-81
2023/08/08 04:57:04;;;;;;;5.68;1.70;;;13.20;99.90;;;;;;5065402;28;20507;-81
2023/08/08 04:59:30;;;;;;;5.82;1.55;;;13.30;99.90;;;;;;5058352;28;20048;-81
2023/08/08 05:01:55;;;;;;;6.32;1.13;;;13.40;99.90;;;;;;5063781;28;20049;-81
2023/08/08 05:04:21;;;;;;;12.13;1.75;;;13.40;99.90;;;;;;5062742;28;20476;-81
2023/08/08 05:06:47;;;;;;;10.07;1.85;;;13.40;99.90;;;;;;5070789;28;20113;-80
2023/08/08 05:09:12;;;;;;;9.70;1.45;;;13.50;99.90;;;;;;5080435;28;20437;-81
2023/08/08 05:11:38;;;;;;;5.05;1.30;;;13.60;99.90;;;;;;5056675;28;20484;-81
2023/08/08 05:14:04;;;;;;;9.38;1.55;;;13.60;99.90;;;;;;5065524;28;20045;-81
2023/08/08 05:16:29;;;;;;;7.82;1.98;;;13.70;99.90;;;;;;5065492;28;20063;-80
2023/08/08 05:18:55;;;;;;;4.82;1.35;;;13.70;99.90;;;;;;5065080;28;20040;-81
2023/08/08 05:21:22;;;;;;;8.15;1.38;;;13.70;99.90;;;;;;5064696;28;20040;-81
2023/08/08 05:23:47;;;;;;;8.65;1.83;;;13.80;99.90;;;;;;5064105;28;20040;-81
2023/08/08 05:26:14;;;;;;;4.85;1.60;;;13.80;99.90;;;;;;5074565;28;20449;-81
2023/08/08 05:28:40;;;;;;;8.93;1.80;;;13.90;99.90;;;;;;5066002;28;20558;-82
2023/08/08 05:31:06;;;;;;;12.93;1.52;;;13.90;99.90;;;;;;5068377;28;20413;-81
2023/08/08 05:33:32;;;;;;;9.68;1.77;;;14.00;99.90;;;;;;5074740;28;20510;-81
2023/08/08 05:35:57;;;;;;;6.05;1.50;;;14.00;99.90;;;;;;5062216;28;20060;-82
2023/08/08 05:38:24;;;;;;;10.80;1.70;;;14.10;99.90;;;;;;5065433;28;20036;-82
2023/08/08 05:40:49;;;;;;;8.55;1.60;;;14.20;99.90;;;;;;5056364;28;20503;-83
2023/08/08 05:43:18;;;;;;;8.10;1.80;;;14.10;99.90;;;;;;5061283;28;20134;-82
2023/08/08 05:45:44;;;;;;;8.32;1.60;;;14.30;99.90;;;;;;5050231;28;20046;-82
2023/08/08 05:48:12;;;;;;;9.57;1.90;;;14.30;99.90;;;;;;5070937;28;20083;-83
2023/08/08 05:50:38;;;;;;;8.95;1.48;;;14.30;99.90;;;;;;5068848;28;20127;-82
2023/08/08 05:53:04;;;;;;;7.80;1.83;;;14.40;99.90;;;;;;5054320;28;20040;-82
2023/08/08 05:55:30;;;;;;;8.32;1.40;;;14.40;99.90;;;;;;5068889;28;20047;-82
2023/08/08 05:57:56;;;;;;;9.90;1.65;;;14.40;99.90;;;;;;5050001;28;20384;-82
2023/08/08 06:00:22;;;;;;;9.27;1.70;;;14.50;99.90;;;;;;5070864;28;20082;-82
2023/08/08 06:02:48;;;;;;;7.55;1.95;;;14.70;99.90;;;;;;5060412;28;20503;-82
2023/08/08 06:05:13;;;;;;;9.48;1.58;;;14.60;99.90;;;;;;5067817;28;20036;-82
2023/08/08 06:07:39;;;;;;;11.00;1.20;;;14.70;99.90;;;;;;5067038;28;20075;-83
2023/08/08 06:10:06;;;;;;;7.45;1.85;;;14.70;99.90;;;;;;5050503;28;20244;-82
2023/08/08 06:12:32;;;;;;;7.80;1.33;;;14.80;99.90;;;;;;5067731;28;20142;-83
2023/08/08 06:14:57;;;;;;;9.77;1.20;;;14.90;99.90;;;;;;5049597;28;20554;-82
2023/08/08 06:17:23;;;;;;;8.18;1.40;;;14.90;99.90;;;;;;5072559;28;20044;-83
2023/08/08 06:19:54;;;;;;;11.63;1.23;;;15.00;99.90;;;;;;5067577;28;20040;-83
2023/08/08 06:22:19;;;;;;;9.05;1.75;;;15.00;99.90;;;;;;5076992;28;20052;-83
2023/08/08 06:24:45;;;;;;;10.50;1.50;;;15.10;99.90;;;;;;5049576;28;20475;-83
2023/08/08 06:27:13;;;;;;;9.80;1.98;;;15.10;99.90;;;;;;5054369;28;20044;-84
2023/08/08 06:29:39;;;;;;;6.00;1.20;;;15.20;99.90;;;;;;5054970;28;20037;-83
2023/08/08 06:32:05;;;;;;;9.25;1.60;;;15.30;99.90;;;;;;5058518;28;20415;-83
2023/08/08 06:34:30;;;;;;;7.20;1.38;;;15.30;99.90;;;;;;5054796;28;20054;-82
2023/08/08 06:36:56;;;;;;;7.60;1.40;;;15.40;99.90;;;;;;5065954;28;20040;-84
2023/08/08 06:39:22;;;;;;;7.50;1.20;;;15.50;99.90;;;;;;5069816;28;20039;-83
2023/08/08 06:41:48;;;;;;;7.28;1.23;;;15.50;99.90;;;;;;5071402;28;20041;-84
2023/08/08 06:44:13;;;;;;;7.95;1.30;;;15.60;99.90;;;;;;5068102;28;20036;-83
2023/08/08 06:46:39;;;;;;;7.93;1.35;;;15.70;99.90;;;;;;5065718;28;20396;-83
2023/08/08 06:49:06;;;;;;;9.48;1.23;;;15.80;99.90;;;;;;5058819;28;20044;-83
2023/08/08 06:51:34;;;;;;;11.40;1.75;;;15.80;99.90;;;;;;5073326;28;20448;-83
2023/08/08 06:54:00;;;;;;;10.77;1.50;;;15.90;99.90;;;;;;5053313;28;20040;-82
2023/08/08 06:56:26;;;;;;;11.52;1.40;;;16.00;99.90;;;;;;5055775;28;20063;-81
2023/08/08 06:58:53;;;;;;;8.70;1.45;;;16.10;99.90;;;;;;5065303;28;20040;-82
2023/08/08 07:01:19;;;;;;;10.90;1.30;;;16.30;99.90;;;;;;5079347;28;20145;-82
2023/08/08 07:03:46;;;;;;;9.38;1.73;;;16.30;99.90;;;;;;5064322;28;20044;-82
2023/08/08 07:06:12;;;;;;;12.38;1.55;;;16.40;99.90;;;;;;5072476;28;20487;-83
2023/08/08 07:08:39;;;;;;;10.18;1.23;;;16.40;99.90;;;;;;5052488;28;20080;-84
2023/08/08 07:11:08;;;;;;;8.80;1.67;;;16.40;99.90;;;;;;5056173;28;20047;-83
2023/08/08 07:13:34;;;;;;;10.27;1.30;;;16.50;99.90;;;;;;5053945;28;20044;-83
2023/08/08 07:16:00;;;;;;;9.05;1.13;;;16.60;99.90;;;;;;5047366;28;20105;-83
2023/08/08 07:18:26;;;;;;;12.10;1.73;;;16.70;99.90;;;;;;5047852;28;20036;-82
2023/08/08 07:20:52;;;;;;;7.25;1.15;;;16.70;99.90;;;;;;5070344;28;20043;-83
2023/08/08 07:23:18;;;;;;;9.60;1.20;;;16.80;99.90;;;;;;5065059;28;20043;-84
2023/08/08 07:25:44;;;;;;;15.10;1.38;;;16.80;99.90;;;;;;5057699;28;20060;-85
2023/08/08 07:28:10;;;;;;;7.82;1.15;;;16.90;99.90;;;;;;5068611;28;20086;-83
2023/08/08 07:30:36;;;;;;;13.07;1.35;;;16.80;99.90;;;;;;5047489;28;20037;-83
2023/08/08 07:33:02;;;;;;;10.25;1.80;;;16.90;99.90;;;;;;5048697;28;20461;-85
2023/08/08 07:35:27;;;;;;;13.23;1.35;;;17.00;99.90;;;;;;5079320;28;20048;-82
2023/08/08 07:37:53;;;;;;;11.27;1.30;;;17.20;99.90;;;;;;5063622;28;20043;-84
2023/08/08 07:40:21;;;;;;;10.85;1.27;;;17.30;99.90;;;;;;5047823;28;20098;-85
2023/08/08 07:42:48;;;;;;;9.40;1.30;;;17.40;99.90;;;;;;5056273;28;20075;-83
2023/08/08 07:45:13;;;;;;;14.18;1.38;;;17.30;99.90;;;;;;5065230;28;20037;-84
2023/08/08 07:47:39;;;;;;;11.50;1.42;;;17.20;99.90;;;;;;5064598;28;20051;-83
2023/08/08 07:50:08;;;;;;;7.93;0.93;;;17.30;99.90;;;;;;5066992;28;20412;-84
2023/08/08 07:52:37;;;;;;;9.43;1.30;;;17.40;99.90;;;;;;5062946;28;20060;-83
2023/08/08 07:55:04;;;;;;;6.97;1.20;;;17.50;99.90;;;;;;5059350;28;20044;-84
2023/08/08 07:57:31;;;;;;;8.32;1.00;;;17.50;99.90;;;;;;5065108;28;20110;-84
2023/08/08 07:59:57;;;;;;;5.68;1.00;;;17.60;99.90;;;;;;5062705;28;20053;-84
2023/08/08 08:02:22;;;;;;;10.35;1.50;;;17.60;99.90;;;;;;5063241;28;20037;-84
2023/08/08 08:04:48;;;;;;;11.60;1.35;;;17.60;99.90;;;;;;5046503;28;20435;-84
2023/08/08 08:07:14;;;;;;;9.32;1.63;;;17.50;99.90;;;;;;5063480;28;20049;-83
2023/08/08 08:09:42;;;;;;;7.78;1.23;;;17.40;99.90;;;;;;5065594;28;20403;-83
2023/08/08 08:12:08;;;;;;;8.40;1.55;;;17.50;99.90;;;;;;5051181;28;20052;-83
2023/08/08 08:14:34;;;;;;;9.73;1.20;;;17.60;99.90;;;;;;5067875;28;20594;-84
2023/08/08 08:17:00;;;;;;;10.98;1.35;;;17.60;99.90;;;;;;5075300;28;20056;-83
2023/08/08 08:19:26;;;;;;;6.88;1.10;;;17.60;99.90;;;;;;5071429;28;20484;-84
2023/08/08 08:21:51;;;;;;;10.75;1.02;;;17.70;99.90;;;;;;5067947;28;20110;-83
2023/08/08 08:24:17;;;;;;;8.43;1.27;;;17.70;99.90;;;;;;5052868;28;20110;-84
2023/08/08 08:26:43;;;;;;;5.80;1.13;;;17.60;99.90;;;;;;5065677;28;20043;-84
2023/08/08 08:29:08;;;;;;;6.47;1.23;;;17.60;99.90;;;;;;5069195;28;20093;-84
2023/08/08 08:31:34;;;;;;;11.20;1.20;;;17.60;99.90;;;;;;5071754;28;20119;-84
2023/08/08 08:34:00;;;;;;;6.30;1.33;;;17.70;99.90;;;;;;5070506;28;20048;-84
2023/08/08 08:36:26;;;;;;;9.45;1.10;;;17.60;99.90;;;;;;5052902;28;20056;-84
2023/08/08 08:38:52;;;;;;;11.77;1.33;;;17.50;99.90;;;;;;5068047;28;20039;-85
2023/08/08 08:41:19;;;;;;;5.75;1.10;;;17.30;99.90;;;;;;5051477;28;20052;-84
2023/08/08 08:43:46;;;;;;;10.55;1.25;;;17.20;99.90;;;;;;5069946;28;20036;-84
2023/08/08 08:46:18;;;;;;;18.77;1.92;;;17.20;99.90;;;;;;5068279;28;20041;-84
2023/08/08 08:48:44;;;;;;;10.63;1.90;;;17.30;99.90;;;;;;5051688;28;20040;-84
2023/08/08 08:51:10;;;;;;;6.28;1.30;;;17.30;99.90;;;;;;5068680;28;20687;-84
2023/08/08 08:53:39;;;;;;;6.78;1.13;;;17.20;99.90;;;;;;5052557;28;20037;-84
2023/08/08 08:56:05;;;;;;;7.88;1.35;;;17.20;99.90;;;;;;5050941;28;20044;-84
2023/08/08 08:58:30;;;;;;;9.13;1.42;;;17.10;99.90;;;;;;5052132;28;20052;-84
2023/08/08 09:00:58;;;;;;;13.45;1.35;;;17.10;99.90;;;;;;5068257;28;20048;-84
2023/08/08 09:03:25;;;;;;;9.32;1.10;;;17.50;99.90;;;;;;5069148;28;20128;-83
2023/08/08 09:05:52;;;;;;;5.65;1.00;;;17.80;99.90;;;;;;5068031;28;20048;-84
2023/08/08 09:08:17;;;;;;;11.90;1.10;;;17.80;99.90;;;;;;5068648;28;20047;-84
2023/08/08 09:10:43;;;;;;;12.70;1.08;;;17.70;99.90;;;;;;5067812;28;20049;-84
2023/08/08 09:13:10;;;;;;;12.88;1.58;;;17.70;99.90;;;;;;5067676;28;20039;-84
2023/08/08 09:15:35;;;;;;;7.28;1.02;;;17.90;99.90;;;;;;5068702;28;20048;-83
2023/08/08 09:18:02;;;;;;;8.93;1.30;;;18.00;99.90;;;;;;5065571;28;20051;-83
2023/08/08 09:20:29;;;;;;;6.70;0.60;;;17.80;99.90;;;;;;5088592;28;20044;-83
2023/08/08 09:22:54;;;;;;;7.30;1.25;;;17.50;99.90;;;;;;5068553;28;20500;-84
2023/08/08 09:25:20;;;;;;;7.72;0.75;;;17.40;99.90;;;;;;5065162;28;20095;-85
2023/08/08 09:27:47;;;;;;;3.00;0.70;;;17.40;99.90;;;;;;5068174;28;20041;-85
2023/08/08 09:30:13;;;;;;;7.43;1.25;;;17.40;99.90;;;;;;5050893;28;20377;-85
2023/08/08 09:32:39;;;;;;;9.60;1.25;;;17.50;99.90;;;;;;5067640;28;20040;-84
2023/08/08 09:35:09;;;;;;;10.23;0.88;;;17.60;99.90;;;;;;5068113;28;20044;-83
2023/08/08 09:37:35;;;;;;;4.43;0.70;;;17.80;99.90;;;;;;5089190;28;20059;-84
2023/08/08 09:40:03;;;;;;;11.07;1.42;;;17.90;99.90;;;;;;5068681;28;20488;-84
2023/08/08 09:42:29;;;;;;;5.65;0.70;;;18.10;99.90;;;;;;5068398;28;20146;-84
2023/08/08 09:44:58;;;;;;;9.73;1.45;;;18.40;99.90;;;;;;5078664;28;20040;-85
2023/08/08 09:47:30;;;;;;;7.03;0.90;;;18.50;99.90;;;;;;5085135;28;20036;-85
2023/08/08 09:50:01;;;;;;;12.00;1.13;;;18.50;99.90;;;;;;5062386;28;20040;-84
2023/08/08 09:52:29;;;;;;;12.82;1.20;;;18.60;99.90;;;;;;5052960;28;20131;-85
2023/08/08 09:54:55;;;;;;;8.98;1.35;;;18.80;99.90;;;;;;5055213;28;20049;-85
2023/08/08 09:57:24;;;;;;;8.85;1.33;;;19.10;99.90;;;;;;5051426;28;20120;-85
2023/08/08 09:59:52;;;;;;;4.45;0.60;;;19.30;99.90;;;;;;5067947;28;20057;-84
2023/08/08 10:02:18;;;;;;;5.70;0.90;;;19.40;99.90;;;;;;5069691;28;20037;-84
2023/08/08 10:04:47;;;;;;;7.05;1.10;;;19.20;99.90;;;;;;5067454;28;20040;-83
2023/08/08 10:07:14;;;;;;;8.15;1.10;;;18.80;99.90;;;;;;5049818;28;20047;-83
2023/08/08 10:09:40;;;;;;;7.65;0.98;;;18.50;99.90;;;;;;5066516;28;20124;-83
2023/08/08 10:12:07;;;;;;;7.25;0.95;;;18.00;99.90;;;;;;5066740;28;20045;-82
2023/08/08 10:14:36;;;;;;;4.82;0.60;;;17.50;99.90;;;;;;5065305;28;20036;-82
2023/08/08 10:17:06;;;;;;;4.88;0.90;;;17.10;99.90;;;;;;5066994;28;20048;-82
2023/08/08 10:19:32;;;;;;;4.15;0.88;;;16.80;99.90;;;;;;5058333;28;20439;-83
2023/08/08 10:22:04;;;;;;;5.25;1.05;;;16.60;99.90;;;;;;5083513;28;20040;-83
2023/08/08 10:24:36;;;;;;;4.50;1.10;;;16.50;99.90;;;;;;5077480;28;20052;-82
2023/08/08 10:27:04;;;;;;;8.73;1.02;;;16.50;99.90;;;;;;5060844;28;20071;-83
2023/08/08 10:29:32;;;;;;;5.07;0.90;;;16.70;99.90;;;;;;5064735;28;20072;-83
2023/08/08 10:32:05;;;;;;;8.00;1.00;;;17.00;99.90;;;;;;5071388;28;20051;-83
2023/08/08 10:34:38;;;;;;;;;;;17.10;99.90;;;;;;5053987;28;20044;-84
2023/08/08 10:37:24;;;;;;;10.82;1.42;;;17.10;99.90;;;;;;5065599;28;20273;-84
2023/08/08 10:39:56;;;;;;;11.15;1.55;;;17.00;99.90;;;;;;5073578;28;20060;-83
2023/08/08 10:42:23;;;;;;;9.27;2.22;;;16.90;99.90;;;;;;5072073;28;20044;-84
2023/08/08 10:44:54;;;;;;;12.88;1.42;;;16.90;99.90;;;;;;5077963;28;20036;-84
2023/08/08 10:47:31;;;;;;;6.90;1.40;;;16.90;99.90;;;;;;5072339;28;20063;-83
2023/08/08 10:50:11;;;;;;;9.48;1.25;;;17.10;99.90;;;;;;5050057;28;20438;-83
2023/08/08 10:52:50;;;;;;;8.68;1.20;;;17.30;99.90;;;;;;5058221;28;20610;-83
2023/08/08 10:55:22;;;;;;;8.40;1.40;;;17.50;99.90;;;;;;5073804;28;20039;-81
2023/08/08 10:58:15;;;;;;;6.32;1.23;;;17.70;99.90;;;;;;5079211;28;20040;-82
2023/08/08 11:00:41;;;;;;;10.68;1.30;;;17.90;99.90;;;;;;5048623;28;20054;-82
2023/08/08 11:03:08;;;;;;;4.60;0.85;;;18.00;99.90;;;;;;5068726;28;20045;-82
2023/08/08 11:05:36;;;;;;;6.53;1.02;;;18.20;99.90;;;;;;5050220;28;20480;-84
2023/08/08 11:08:04;;;;;;;8.27;1.20;;;18.30;99.90;;;;;;5049303;28;20045;-82
2023/08/08 11:10:34;;;;;;;6.53;0.95;;;18.50;99.90;;;;;;5049764;28;20087;-83
2023/08/08 11:13:03;;;;;;;7.57;1.40;;;18.60;99.90;;;;;;5049208;28;20040;-82
2023/08/08 11:15:30;;;;;;;5.90;1.25;;;18.80;99.90;;;;;;5050542;28;20048;-83
2023/08/08 11:17:56;;;;;;;6.28;0.90;;;18.90;99.90;;;;;;5064817;28;20044;-83
2023/08/08 11:20:23;;;;;;;8.35;0.90;;;19.00;99.90;;;;;;5053120;28;20510;-82
2023/08/08 11:22:56;;;;;;;4.45;1.10;;;19.10;99.90;;;;;;5070440;28;20044;-82
2023/08/08 11:25:25;;;;;;;9.95;0.93;;;19.20;99.90;;;;;;5071667;28;20110;-82
2023/08/08 11:27:52;;;;;;;6.78;0.88;;;19.30;99.90;;;;;;5054017;28;20040;-82
2023/08/08 11:30:19;;;;;;;6.45;1.25;;;19.10;99.90;;;;;;5066102;28;20059;-83
2023/08/08 11:32:46;;;;;;;8.15;1.33;;;19.10;99.90;;;;;;5053760;28;20040;-82
2023/08/08 11:35:15;;;;;;;8.25;0.90;;;19.10;99.90;;;;;;5083771;28;20057;-82
2023/08/08 11:37:41;;;;;;;7.75;1.02;;;19.20;99.90;;;;;;5051259;28;20124;-83
2023/08/08 11:40:08;;;;;;;9.48;1.08;;;19.30;99.90;;;;;;5055854;28;20036;-83
2023/08/08 11:42:34;;;;;;;6.45;0.90;;;19.40;99.90;;;;;;5066730;28;20082;-84
2023/08/08 11:45:01;;;;;;;4.90;0.60;;;19.40;99.90;;;;;;5066621;28;20527;-83
2023/08/08 11:47:28;;;;;;;5.97;1.00;;;19.40;99.90;;;;;;5085483;28;20123;-83
2023/08/08 11:49:53;;;;;;;5.78;0.70;;;19.30;99.90;;;;;;5066223;28;20123;-83
2023/08/08 11:52:19;;;;;;;4.20;0.90;;;19.30;99.90;;;;;;5084223;28;20131;-82
2023/08/08 11:54:51;;;;;;;7.40;1.00;;;19.40;99.90;;;;;;5085580;28;20044;-83
2023/08/08 11:57:17;;;;;;;9.40;1.10;;;19.50;99.90;;;;;;5068679;28;20119;-83
2023/08/08 11:59:43;;;;;;;9.15;1.33;;;19.40;99.90;;;;;;5083104;28;20177;-83
2023/08/08 12:02:10;;;;;;;7.85;1.17;;;19.10;99.90;;;;;;5068949;28;20111;-83
2023/08/08 12:04:36;;;;;;;5.32;1.13;;;19.20;99.90;;;;;;5064946;28;20048;-82
2023/08/08 12:07:03;;;;;;;8.68;1.20;;;19.40;99.90;;;;;;5064127;28;20041;-82
2023/08/08 12:09:32;;;;;;;8.48;0.95;;;19.50;99.90;;;;;;5049249;28;20041;-83
2023/08/08 12:12:03;;;;;;;6.30;1.48;;;19.50;99.90;;;;;;5064082;28;20048;-83
2023/08/08 12:14:29;;;;;;;9.75;1.17;;;19.50;99.90;;;;;;5066697;28;20044;-84
2023/08/08 12:16:56;;;;;;;11.88;0.90;;;19.40;99.90;;;;;;5064387;28;20408;-83
2023/08/08 12:19:25;;;;;;;7.65;1.73;;;19.30;99.90;;;;;;5064355;28;20213;-83
2023/08/08 12:21:51;;;;;;;11.07;0.93;;;19.40;99.90;;;;;;5063924;28;20151;-84
2023/08/08 12:24:18;;;;;;;8.57;1.35;;;19.20;99.90;;;;;;5063677;28;20066;-83
2023/08/08 12:26:44;;;;;;;7.05;0.80;;;18.90;99.90;;;;;;5063265;28;20047;-84
2023/08/08 12:29:10;;;;;;;13.05;1.55;;;18.60;99.90;;;;;;5063769;28;20044;-83
2023/08/08 12:31:36;;;;;;;9.05;1.20;;;18.30;99.90;;;;;;5082525;28;20148;-83
2023/08/08 12:34:01;;;;;;;9.30;1.45;;;18.30;99.90;;;;;;5064861;28;20040;-83
2023/08/08 12:36:27;;;;;;;10.13;1.35;;;18.50;99.90;;;;;;5048433;28;20382;-83
2023/08/08 12:38:53;;;;;;;11.38;1.25;;;18.50;99.90;;;;;;5047641;28;20041;-83
2023/08/08 12:41:19;;;;;;;8.50;1.08;;;18.60;99.90;;;;;;5064835;28;20059;-83
2023/08/08 12:43:44;;;;;;;10.18;1.40;;;18.80;99.90;;;;;;5066179;28;20044;-84